createdAt,value
2018-07-11T00:00:14.266Z,76.66
2018-07-11T00:00:45.461Z,76.54
2018-07-11T00:01:16.689Z,76.88
2018-07-11T00:01:47.864Z,76.62
2018-07-11T00:02:19.102Z,76.61
2018-07-11T00:02:50.335Z,76.56
2018-07-11T00:03:21.564Z,76.82
2018-07-11T00:03:52.800Z,77.25
2018-07-11T00:04:23.980Z,76.67
2018-07-11T00:04:55.208Z,77.05
2018-07-11T00:05:26.415Z,76.44
2018-07-11T00:05:57.589Z,77.00
2018-07-11T00:06:28.812Z,76.69
2018-07-11T00:06:59.985Z,76.64
2018-07-11T00:07:31.160Z,76.48
2018-07-11T00:08:02.385Z,76.75
2018-07-11T00:08:33.616Z,76.14
2018-07-11T00:09:04.795Z,76.31
2018-07-11T00:09:35.972Z,76.41
2018-07-11T00:10:07.217Z,76.68
2018-07-11T00:10:38.408Z,76.57
2018-07-11T00:11:09.637Z,76.54
2018-07-11T00:11:41.005Z,76.47
2018-07-11T00:12:12.197Z,76.53
2018-07-11T00:12:43.434Z,75.84
2018-07-11T00:13:14.624Z,75.68
2018-07-11T00:13:45.804Z,75.91
2018-07-11T00:14:16.984Z,75.53
2018-07-11T00:14:48.210Z,75.82
2018-07-11T00:15:19.443Z,75.47
2018-07-11T00:15:50.625Z,75.84
2018-07-11T00:16:21.798Z,75.49
2018-07-11T00:16:53.097Z,75.29
2018-07-11T00:17:24.350Z,75.09
2018-07-11T00:17:55.576Z,75.40
2018-07-11T00:18:26.828Z,74.97
2018-07-11T00:18:58.090Z,75.57
2018-07-11T00:19:29.357Z,75.37
2018-07-11T00:20:00.552Z,75.40
2018-07-11T00:20:31.785Z,75.43
2018-07-11T00:21:03.007Z,75.35
2018-07-11T00:21:34.186Z,74.69
2018-07-11T00:22:05.415Z,74.86
2018-07-11T00:22:36.647Z,74.84
2018-07-11T00:23:07.832Z,75.14
2018-07-11T00:23:39.060Z,75.05
2018-07-11T00:24:10.245Z,74.47
2018-07-11T00:24:41.427Z,74.55
2018-07-11T00:25:12.663Z,75.18
2018-07-11T00:25:43.850Z,75.08
2018-07-11T00:26:15.032Z,74.73
2018-07-11T00:26:46.229Z,74.63
2018-07-11T00:27:17.461Z,74.86
2018-07-11T00:27:48.681Z,74.98
2018-07-11T00:28:19.868Z,75.10
2018-07-11T00:28:51.048Z,75.20
2018-07-11T00:29:22.221Z,74.50
2018-07-11T00:29:53.413Z,74.59
2018-07-11T00:30:24.584Z,74.82
2018-07-11T00:30:55.765Z,74.74
2018-07-11T00:31:26.955Z,74.81
2018-07-11T00:31:58.128Z,74.75
2018-07-11T00:32:29.362Z,74.22
2018-07-11T00:33:00.594Z,74.50
2018-07-11T00:33:31.801Z,74.77
2018-07-11T00:34:02.990Z,74.63
2018-07-11T00:34:34.175Z,74.44
2018-07-11T00:35:05.376Z,74.97
2018-07-11T00:35:36.563Z,74.69
2018-07-11T00:36:07.755Z,74.00
2018-07-11T00:36:38.968Z,73.61
2018-07-11T00:37:10.204Z,74.03
2018-07-11T00:37:41.441Z,74.10
2018-07-11T00:38:12.625Z,74.70
2018-07-11T00:38:43.803Z,73.94
2018-07-11T00:39:14.989Z,73.97
2018-07-11T00:39:46.168Z,74.61
2018-07-11T00:40:17.400Z,74.15
2018-07-11T00:40:48.592Z,74.21
2018-07-11T00:41:19.828Z,74.59
2018-07-11T00:41:51.064Z,74.99
2018-07-11T00:42:22.244Z,74.77
2018-07-11T00:42:53.456Z,75.26
2018-07-11T00:43:24.916Z,75.11
2018-07-11T00:43:56.089Z,74.83
2018-07-11T00:44:27.268Z,74.72
2018-07-11T00:44:58.447Z,75.17
2018-07-11T00:45:29.661Z,74.77
2018-07-11T00:46:00.889Z,75.22
2018-07-11T00:46:32.166Z,75.44
2018-07-11T00:47:03.360Z,75.33
2018-07-11T00:47:34.537Z,75.43
2018-07-11T00:48:05.715Z,75.45
2018-07-11T00:48:36.940Z,75.43
2018-07-11T00:49:08.178Z,76.00
2018-07-11T00:49:39.372Z,75.72
2018-07-11T00:50:10.548Z,75.46
2018-07-11T00:50:41.729Z,74.94
2018-07-11T00:51:12.900Z,75.16
2018-07-11T00:51:44.125Z,75.34
2018-07-11T00:52:15.309Z,75.13
2018-07-11T00:52:46.480Z,74.93
2018-07-11T00:53:17.716Z,75.10
2018-07-11T00:53:48.987Z,74.60
2018-07-11T00:54:20.222Z,74.44
2018-07-11T00:54:51.409Z,74.85
2018-07-11T00:55:22.592Z,74.75
2018-07-11T00:55:53.826Z,75.05
2018-07-11T00:56:25.007Z,74.64
2018-07-11T00:56:56.220Z,74.66
2018-07-11T00:57:27.396Z,75.44
2018-07-11T00:57:58.574Z,75.42
2018-07-11T00:58:29.748Z,75.16
2018-07-11T00:59:01.073Z,74.92
2018-07-11T00:59:32.267Z,75.17
2018-07-11T01:00:03.448Z,75.74
2018-07-11T01:00:34.685Z,75.37
2018-07-11T01:01:06.667Z,75.46
2018-07-11T01:01:37.942Z,75.47
2018-07-11T01:02:09.181Z,75.81
2018-07-11T01:02:40.376Z,75.50
2018-07-11T01:03:11.600Z,76.25
2018-07-11T01:03:42.884Z,75.76
2018-07-11T01:04:14.069Z,75.97
2018-07-11T01:04:45.245Z,76.43
2018-07-11T01:05:16.473Z,75.93
2018-07-11T01:05:47.669Z,75.83
2018-07-11T01:06:18.848Z,75.98
2018-07-11T01:06:50.088Z,75.43
2018-07-11T01:07:21.327Z,75.13
2018-07-11T01:07:52.513Z,75.68
2018-07-11T01:08:23.737Z,75.32
2018-07-11T01:08:55.025Z,75.55
2018-07-11T01:09:26.222Z,75.55
2018-07-11T01:09:57.442Z,76.42
2018-07-11T01:10:28.633Z,75.65
2018-07-11T01:10:59.810Z,76.23
2018-07-11T01:11:31.023Z,75.75
2018-07-11T01:12:02.198Z,75.15
2018-07-11T01:12:33.369Z,75.52
2018-07-11T01:13:04.611Z,74.86
2018-07-11T01:13:35.788Z,74.95
2018-07-11T01:14:07.017Z,75.40
2018-07-11T01:14:38.247Z,74.87
2018-07-11T01:15:09.431Z,74.99
2018-07-11T01:15:40.671Z,75.54
2018-07-11T01:16:11.858Z,74.84
2018-07-11T01:16:43.078Z,75.03
2018-07-11T01:17:14.270Z,75.07
2018-07-11T01:17:45.445Z,75.13
2018-07-11T01:18:16.625Z,75.77
2018-07-11T01:18:47.794Z,75.54
2018-07-11T01:19:19.029Z,75.46
2018-07-11T01:19:50.258Z,75.47
2018-07-11T01:20:21.508Z,75.06
2018-07-11T01:20:52.694Z,75.56
2018-07-11T01:21:23.866Z,75.32
2018-07-11T01:21:55.042Z,75.38
2018-07-11T01:22:26.257Z,75.33
2018-07-11T01:22:57.434Z,75.36
2018-07-11T01:23:28.680Z,75.60
2018-07-11T01:23:59.876Z,75.97
2018-07-11T01:24:31.096Z,75.50
2018-07-11T01:25:02.284Z,75.51
2018-07-11T01:25:33.472Z,75.81
2018-07-11T01:26:04.703Z,75.87
2018-07-11T01:26:35.941Z,75.85
2018-07-11T01:27:07.165Z,76.25
2018-07-11T01:27:38.344Z,75.87
2018-07-11T01:28:09.577Z,75.65
2018-07-11T01:28:40.770Z,75.50
2018-07-11T01:29:12.009Z,75.51
2018-07-11T01:29:43.241Z,75.48
2018-07-11T01:30:14.467Z,75.60
2018-07-11T01:30:45.713Z,75.44
2018-07-11T01:31:16.922Z,75.29
2018-07-11T01:31:48.104Z,75.33
2018-07-11T01:32:19.339Z,75.51
2018-07-11T01:32:50.532Z,75.98
2018-07-11T01:33:21.752Z,75.44
2018-07-11T01:33:52.993Z,75.00
2018-07-11T01:34:24.204Z,75.33
2018-07-11T01:34:55.432Z,75.40
2018-07-11T01:35:26.672Z,75.39
2018-07-11T01:35:57.884Z,74.86
2018-07-11T01:36:29.121Z,75.01
2018-07-11T01:37:00.308Z,74.97
2018-07-11T01:37:31.496Z,75.72
2018-07-11T01:38:02.717Z,75.31
2018-07-11T01:38:33.904Z,75.07
2018-07-11T01:39:05.084Z,75.44
2018-07-11T01:39:36.308Z,75.66
2018-07-11T01:40:07.481Z,76.21
2018-07-11T01:40:38.701Z,76.17
2018-07-11T01:41:09.952Z,76.07
2018-07-11T01:41:41.153Z,76.53
2018-07-11T01:42:12.437Z,76.22
2018-07-11T01:42:43.638Z,77.00
2018-07-11T01:43:14.819Z,76.30
2018-07-11T01:43:45.997Z,76.71
2018-07-11T01:44:17.224Z,76.43
2018-07-11T01:44:48.457Z,76.50
2018-07-11T01:45:19.656Z,76.78
2018-07-11T01:45:50.894Z,77.11
2018-07-11T01:46:22.137Z,76.81
2018-07-11T01:46:53.316Z,77.39
2018-07-11T01:47:24.549Z,77.21
2018-07-11T01:47:55.773Z,76.93
2018-07-11T01:48:27.010Z,77.11
2018-07-11T01:48:58.189Z,77.65
2018-07-11T01:49:29.421Z,76.75
2018-07-11T01:50:00.653Z,77.39
2018-07-11T01:50:31.828Z,76.71
2018-07-11T01:51:03.012Z,76.90
2018-07-11T01:51:34.195Z,76.40
2018-07-11T01:52:05.400Z,77.00
2018-07-11T01:52:36.649Z,76.43
2018-07-11T01:53:07.820Z,76.35
2018-07-11T01:53:39.004Z,76.55
2018-07-11T01:54:10.237Z,76.55
2018-07-11T01:54:41.425Z,76.39
2018-07-11T01:55:12.596Z,76.04
2018-07-11T01:55:43.814Z,76.07
2018-07-11T01:56:15.039Z,75.48
2018-07-11T01:56:46.220Z,75.71
2018-07-11T01:57:17.406Z,75.92
2018-07-11T01:57:48.583Z,75.93
2018-07-11T01:58:19.808Z,76.47
2018-07-11T01:58:51.058Z,75.48
2018-07-11T01:59:22.246Z,75.92
2018-07-11T01:59:53.521Z,75.81
2018-07-11T02:00:24.766Z,76.18
2018-07-11T02:00:56.002Z,76.05
2018-07-11T02:01:27.192Z,75.82
2018-07-11T02:01:58.410Z,75.52
2018-07-11T02:02:29.642Z,76.24
2018-07-11T02:03:00.917Z,76.10
2018-07-11T02:03:32.099Z,75.39
2018-07-11T02:04:03.303Z,75.85
2018-07-11T02:04:34.472Z,75.53
2018-07-11T02:05:05.655Z,75.42
2018-07-11T02:05:36.896Z,75.24
2018-07-11T02:06:08.085Z,75.17
2018-07-11T02:06:39.321Z,74.87
2018-07-11T02:07:10.562Z,75.74
2018-07-11T02:07:41.805Z,75.21
2018-07-11T02:08:13.036Z,75.62
2018-07-11T02:08:44.212Z,75.08
2018-07-11T02:09:15.430Z,74.96
2018-07-11T02:09:46.653Z,74.67
2018-07-11T02:10:17.834Z,74.62
2018-07-11T02:10:49.052Z,74.49
2018-07-11T02:11:20.293Z,74.29
2018-07-11T02:11:51.481Z,74.15
2018-07-11T02:12:22.661Z,74.18
2018-07-11T02:12:53.836Z,74.51
2018-07-11T02:13:25.012Z,74.70
2018-07-11T02:13:56.242Z,74.20
2018-07-11T02:14:27.520Z,74.30
2018-07-11T02:14:58.753Z,74.30
2018-07-11T02:15:29.944Z,74.38
2018-07-11T02:16:01.126Z,74.40
2018-07-11T02:16:32.446Z,74.99
2018-07-11T02:17:03.642Z,74.95
2018-07-11T02:17:34.869Z,74.81
2018-07-11T02:18:06.105Z,75.04
2018-07-11T02:18:37.324Z,75.62
2018-07-11T02:19:08.504Z,75.56
2018-07-11T02:19:39.736Z,75.66
2018-07-11T02:20:10.914Z,74.99
2018-07-11T02:20:42.141Z,75.48
2018-07-11T02:21:13.384Z,75.51
2018-07-11T02:21:44.576Z,75.94
2018-07-11T02:22:15.813Z,76.16
2018-07-11T02:22:47.002Z,76.17
2018-07-11T02:23:18.177Z,75.69
2018-07-11T02:23:49.452Z,76.16
2018-07-11T02:24:20.657Z,75.85
2018-07-11T02:24:51.825Z,76.13
2018-07-11T02:25:23.000Z,76.22
2018-07-11T02:25:54.179Z,75.77
2018-07-11T02:26:25.413Z,75.31
2018-07-11T02:26:56.614Z,75.93
2018-07-11T02:27:27.845Z,75.42
2018-07-11T02:27:59.095Z,75.58
2018-07-11T02:28:30.280Z,75.24
2018-07-11T02:29:01.496Z,75.41
2018-07-11T02:29:32.665Z,75.46
2018-07-11T02:30:03.835Z,75.61
2018-07-11T02:30:35.110Z,75.81
2018-07-11T02:31:06.304Z,75.20
2018-07-11T02:31:37.536Z,75.03
2018-07-11T02:32:08.717Z,74.87
2018-07-11T02:32:39.900Z,75.74
2018-07-11T02:33:11.113Z,75.39
2018-07-11T02:33:42.290Z,75.29
2018-07-11T02:34:13.510Z,75.92
2018-07-11T02:34:44.715Z,75.52
2018-07-11T02:35:15.949Z,75.37
2018-07-11T02:35:47.225Z,75.49
2018-07-11T02:36:18.473Z,76.00
2018-07-11T02:36:49.725Z,75.73
2018-07-11T02:37:20.922Z,75.49
2018-07-11T02:37:52.113Z,75.59
2018-07-11T02:38:23.350Z,75.71
2018-07-11T02:38:54.610Z,76.42
2018-07-11T02:39:25.837Z,76.52
2018-07-11T02:39:57.075Z,76.06
2018-07-11T02:40:28.273Z,75.78
2018-07-11T02:40:59.484Z,76.59
2018-07-11T02:41:30.711Z,76.52
2018-07-11T02:42:01.933Z,75.86
2018-07-11T02:42:33.118Z,76.54
2018-07-11T02:43:04.293Z,75.84
2018-07-11T02:43:35.517Z,75.70
2018-07-11T02:44:06.746Z,75.99
2018-07-11T02:44:37.991Z,75.95
2018-07-11T02:45:09.234Z,76.06
2018-07-11T02:45:40.417Z,75.80
2018-07-11T02:46:11.626Z,75.42
2018-07-11T02:46:42.852Z,75.84
2018-07-11T02:47:14.029Z,75.17
2018-07-11T02:47:45.258Z,74.69
2018-07-11T02:48:16.455Z,75.72
2018-07-11T02:48:47.641Z,75.27
2018-07-11T02:49:18.834Z,75.46
2018-07-11T02:49:50.013Z,76.04
2018-07-11T02:50:21.241Z,75.77
2018-07-11T02:50:52.432Z,75.34
2018-07-11T02:51:23.617Z,76.07
2018-07-11T02:51:54.839Z,75.75
2018-07-11T02:52:26.069Z,76.17
2018-07-11T02:52:57.245Z,76.01
2018-07-11T02:53:28.649Z,75.69
2018-07-11T02:53:59.873Z,76.16
2018-07-11T02:54:31.060Z,75.73
2018-07-11T02:55:02.297Z,76.31
2018-07-11T02:55:33.536Z,75.94
2018-07-11T02:56:04.769Z,76.43
2018-07-11T02:56:35.964Z,76.42
2018-07-11T02:57:07.233Z,76.65
2018-07-11T02:57:38.471Z,76.11
2018-07-11T02:58:09.719Z,76.33
2018-07-11T02:58:40.913Z,76.12
2018-07-11T02:59:12.104Z,76.15
2018-07-11T02:59:43.280Z,76.53
2018-07-11T03:00:14.469Z,76.04
2018-07-11T03:00:45.690Z,76.18
2018-07-11T03:01:16.872Z,75.78
2018-07-11T03:01:48.099Z,75.79
2018-07-11T03:02:19.391Z,75.88
2018-07-11T03:02:50.589Z,75.95
2018-07-11T03:03:21.772Z,75.63
2018-07-11T03:03:52.964Z,75.82
2018-07-11T03:04:24.144Z,75.22
2018-07-11T03:04:55.377Z,75.33
2018-07-11T03:05:26.666Z,74.99
2018-07-11T03:05:57.951Z,75.08
2018-07-11T03:06:29.128Z,74.72
2018-07-11T03:07:00.332Z,75.22
2018-07-11T03:07:31.508Z,74.79
2018-07-11T03:08:02.740Z,74.33
2018-07-11T03:08:33.937Z,74.59
2018-07-11T03:09:05.132Z,74.59
2018-07-11T03:09:36.397Z,74.67
2018-07-11T03:10:07.795Z,73.84
2018-07-11T03:10:39.031Z,74.10
2018-07-11T03:11:10.927Z,73.94
2018-07-11T03:11:42.125Z,73.15
2018-07-11T03:12:13.312Z,72.89
2018-07-11T03:12:44.484Z,72.76
2018-07-11T03:13:15.693Z,72.64
2018-07-11T03:13:46.881Z,72.69
2018-07-11T03:14:18.066Z,71.69
2018-07-11T03:14:49.249Z,72.18
2018-07-11T03:15:20.424Z,72.29
2018-07-11T03:15:51.602Z,71.93
2018-07-11T03:16:22.830Z,71.80
2018-07-11T03:16:54.021Z,71.63
2018-07-11T03:17:25.258Z,71.80
2018-07-11T03:17:56.497Z,71.12
2018-07-11T03:18:27.716Z,70.82
2018-07-11T03:18:58.953Z,71.07
2018-07-11T03:19:30.135Z,70.58
2018-07-11T03:20:01.346Z,70.11
2018-07-11T03:20:32.524Z,69.72
2018-07-11T03:21:03.717Z,69.74
2018-07-11T03:21:34.944Z,69.56
2018-07-11T03:22:06.145Z,69.94
2018-07-11T03:22:37.901Z,69.58
2018-07-11T03:23:09.132Z,69.10
2018-07-11T03:23:40.308Z,69.23
2018-07-11T03:24:11.496Z,68.22
2018-07-11T03:24:42.673Z,68.36
2018-07-11T03:25:13.885Z,68.55
2018-07-11T03:25:45.214Z,68.58
2018-07-11T03:26:16.453Z,67.96
2018-07-11T03:26:47.744Z,67.57
2018-07-11T03:27:18.926Z,68.25
2018-07-11T03:27:50.148Z,67.28
2018-07-11T03:28:21.386Z,67.94
2018-07-11T03:28:52.617Z,67.17
2018-07-11T03:29:23.892Z,67.19
2018-07-11T03:29:55.073Z,66.88
2018-07-11T03:30:26.313Z,66.75
2018-07-11T03:30:57.513Z,66.83
2018-07-11T03:31:29.042Z,66.54
2018-07-11T03:32:00.274Z,66.18
2018-07-11T03:32:31.527Z,66.71
2018-07-11T03:33:02.753Z,66.29
2018-07-11T03:33:34.032Z,65.03
2018-07-11T03:34:05.225Z,65.26
2018-07-11T03:34:36.440Z,64.78
2018-07-11T03:35:07.677Z,65.16
2018-07-11T03:35:38.864Z,64.54
2018-07-11T03:36:10.107Z,63.95
2018-07-11T03:36:41.345Z,64.33
2018-07-11T03:37:12.569Z,63.41
2018-07-11T03:37:43.837Z,63.33
2018-07-11T03:38:15.091Z,63.25
2018-07-11T03:38:46.276Z,63.38
2018-07-11T03:39:17.468Z,62.27
2018-07-11T03:39:48.696Z,62.34
2018-07-11T03:40:19.929Z,63.13
2018-07-11T03:40:51.124Z,62.54
2018-07-11T03:41:22.359Z,61.85
2018-07-11T03:41:53.597Z,62.00
2018-07-11T03:42:24.784Z,61.01
2018-07-11T03:42:56.013Z,61.07
2018-07-11T03:43:27.192Z,60.30
2018-07-11T03:43:58.429Z,60.65
2018-07-11T03:44:29.662Z,59.86
2018-07-11T03:45:00.891Z,59.95
2018-07-11T03:45:32.120Z,59.79
2018-07-11T03:46:03.387Z,58.79
2018-07-11T03:46:34.581Z,58.99
2018-07-11T03:47:05.797Z,58.33
2018-07-11T03:47:37.029Z,58.35
2018-07-11T03:48:08.269Z,57.65
2018-07-11T03:48:39.507Z,58.04
2018-07-11T03:49:10.686Z,57.89
2018-07-11T03:49:41.901Z,57.41
2018-07-11T03:50:13.072Z,57.78
2018-07-11T03:50:44.257Z,57.73
2018-07-11T03:51:15.433Z,57.01
2018-07-11T03:51:46.709Z,56.79
2018-07-11T03:52:17.896Z,56.46
2018-07-11T03:52:49.069Z,56.50
2018-07-11T03:53:20.330Z,55.62
2018-07-11T03:53:51.600Z,55.85
2018-07-11T03:54:22.796Z,56.21
2018-07-11T03:54:53.964Z,56.12
2018-07-11T03:55:25.151Z,55.27
2018-07-11T03:55:56.373Z,55.40
2018-07-11T03:56:27.552Z,54.04
2018-07-11T03:56:58.773Z,54.71
2018-07-11T03:57:30.010Z,54.29
2018-07-11T03:58:01.201Z,54.82
2018-07-11T03:58:32.376Z,53.90
2018-07-11T03:59:03.560Z,54.17
2018-07-11T03:59:34.732Z,53.08
2018-07-11T04:00:06.142Z,52.96
2018-07-11T04:00:37.345Z,52.60
2018-07-11T04:01:08.532Z,53.32
2018-07-11T04:01:39.732Z,53.06
2018-07-11T04:02:10.918Z,53.53
2018-07-11T04:02:42.185Z,54.65
2018-07-11T04:03:13.372Z,55.29
2018-07-11T04:03:44.561Z,55.30
2018-07-11T04:04:15.732Z,55.83
2018-07-11T04:04:46.978Z,55.96
2018-07-11T04:05:18.160Z,56.20
2018-07-11T04:05:49.384Z,56.39
2018-07-11T04:06:20.628Z,57.45
2018-07-11T04:06:51.864Z,57.17
2018-07-11T04:07:23.061Z,57.28
2018-07-11T04:07:54.228Z,57.32
2018-07-11T04:08:26.356Z,57.19
2018-07-11T04:08:57.588Z,57.29
2018-07-11T04:09:28.781Z,56.83
2018-07-11T04:09:59.993Z,56.66
2018-07-11T04:10:31.775Z,54.81
2018-07-11T04:11:03.048Z,55.41
2018-07-11T04:11:34.241Z,54.26
2018-07-11T04:12:05.428Z,53.53
2018-07-11T04:12:36.612Z,53.78
2018-07-11T04:13:07.857Z,53.19
2018-07-11T04:13:39.053Z,53.59
2018-07-11T04:14:10.276Z,52.81
2018-07-11T04:14:41.456Z,53.68
2018-07-11T04:15:12.686Z,53.68
2018-07-11T04:15:43.894Z,55.00
2018-07-11T04:16:15.068Z,55.92
2018-07-11T04:16:46.305Z,56.45
2018-07-11T04:17:17.504Z,57.56
2018-07-11T04:17:48.668Z,56.74
2018-07-11T04:18:19.844Z,57.82
2018-07-11T04:18:51.101Z,57.32
2018-07-11T04:19:22.336Z,56.88
2018-07-11T04:19:53.516Z,56.19
2018-07-11T04:20:24.697Z,55.77
2018-07-11T04:20:55.872Z,54.72
2018-07-11T04:21:27.054Z,55.03
2018-07-11T04:21:58.221Z,54.58
2018-07-11T04:22:30.000Z,54.37
2018-07-11T04:23:01.186Z,54.87
2018-07-11T04:23:32.408Z,55.15
2018-07-11T04:24:03.632Z,55.34
2018-07-11T04:24:34.858Z,55.95
2018-07-11T04:25:06.087Z,56.91
2018-07-11T04:25:37.272Z,57.34
2018-07-11T04:26:08.453Z,57.33
2018-07-11T04:26:39.632Z,57.35
2018-07-11T04:27:10.815Z,56.03
2018-07-11T04:27:42.058Z,55.85
2018-07-11T04:28:13.278Z,55.58
2018-07-11T04:28:44.486Z,55.58
2018-07-11T04:29:15.658Z,56.24
2018-07-11T04:29:46.888Z,56.03
2018-07-11T04:30:18.071Z,56.34
2018-07-11T04:30:49.258Z,56.23
2018-07-11T04:31:20.482Z,56.27
2018-07-11T04:31:51.668Z,57.71
2018-07-11T04:32:22.855Z,56.61
2018-07-11T04:32:54.029Z,56.10
2018-07-11T04:33:25.275Z,55.58
2018-07-11T04:33:56.428Z,55.93
2018-07-11T04:34:27.676Z,55.92
2018-07-11T04:34:58.862Z,54.52
2018-07-11T04:35:30.090Z,55.06
2018-07-11T04:36:01.339Z,54.29
2018-07-11T04:36:32.569Z,54.72
2018-07-11T04:37:03.744Z,55.06
2018-07-11T04:37:34.920Z,54.69
2018-07-11T04:38:06.094Z,54.85
2018-07-11T04:38:37.346Z,55.24
2018-07-11T04:39:08.648Z,54.51
2018-07-11T04:39:39.833Z,54.72
2018-07-11T04:40:11.078Z,53.66
2018-07-11T04:40:42.270Z,51.95
2018-07-11T04:41:13.457Z,51.88
2018-07-11T04:41:44.726Z,50.55
2018-07-11T04:42:15.957Z,50.24
2018-07-11T04:42:47.134Z,48.95
2018-07-11T04:43:18.324Z,50.27
2018-07-11T04:43:49.493Z,48.46
2018-07-11T04:44:20.729Z,48.58
2018-07-11T04:44:51.968Z,48.92
2018-07-11T04:45:23.572Z,49.60
2018-07-11T04:45:54.799Z,49.84
2018-07-11T04:46:25.989Z,50.04
2018-07-11T04:46:57.155Z,50.41
2018-07-11T04:47:29.218Z,50.89
2018-07-11T04:48:00.405Z,52.17
2018-07-11T04:48:31.581Z,52.36
2018-07-11T04:49:02.764Z,53.39
2018-07-11T04:49:33.945Z,53.38
2018-07-11T04:50:05.124Z,53.56
2018-07-11T04:50:36.298Z,54.12
2018-07-11T04:51:07.488Z,53.97
2018-07-11T04:51:38.677Z,54.88
2018-07-11T04:52:09.901Z,54.79
2018-07-11T04:52:41.102Z,54.38
2018-07-11T04:53:12.277Z,54.75
2018-07-11T04:53:43.516Z,55.36
2018-07-11T04:54:14.791Z,54.89
2018-07-11T04:54:46.087Z,54.83
2018-07-11T04:55:17.403Z,54.77
2018-07-11T04:55:50.632Z,53.74
2018-07-11T04:56:21.853Z,53.76
2018-07-11T04:56:53.034Z,53.68
2018-07-11T04:57:24.236Z,52.75
2018-07-11T04:57:56.253Z,53.31
2018-07-11T04:58:27.443Z,53.11
2018-07-11T04:58:58.616Z,54.31
2018-07-11T04:59:29.840Z,54.44
2018-07-11T05:00:01.021Z,53.87
2018-07-11T05:00:32.265Z,55.13
2018-07-11T05:01:03.504Z,53.94
2018-07-11T05:01:34.699Z,53.33
2018-07-11T05:02:05.876Z,52.57
2018-07-11T05:02:37.098Z,51.66
2018-07-11T05:03:08.276Z,50.20
2018-07-11T05:03:39.453Z,50.38
2018-07-11T05:04:10.625Z,48.86
2018-07-11T05:04:41.881Z,49.08
2018-07-11T05:05:13.097Z,48.91
2018-07-11T05:05:44.288Z,47.52
2018-07-11T05:06:15.534Z,46.63
2018-07-11T05:06:46.717Z,45.93
2018-07-11T05:07:17.897Z,45.48
2018-07-11T05:07:49.125Z,44.56
2018-07-11T05:08:20.348Z,43.87
2018-07-11T05:08:51.540Z,44.22
2018-07-11T05:09:22.805Z,44.06
2018-07-11T05:09:53.993Z,43.85
2018-07-11T05:10:25.181Z,42.68
2018-07-11T05:10:57.325Z,41.34
2018-07-11T05:11:28.537Z,40.71
2018-07-11T05:11:59.760Z,40.90
2018-07-11T05:12:30.949Z,42.14
2018-07-11T05:13:02.182Z,41.82
2018-07-11T05:13:33.376Z,41.58
2018-07-11T05:14:04.565Z,40.45
2018-07-11T05:14:35.796Z,41.00
2018-07-11T05:15:07.057Z,40.92
2018-07-11T05:15:38.286Z,40.30
2018-07-11T05:16:09.523Z,40.17
2018-07-11T05:16:40.698Z,40.62
2018-07-11T05:17:11.888Z,40.21
2018-07-11T05:17:43.093Z,39.75
2018-07-11T05:18:14.281Z,39.35
2018-07-11T05:18:45.465Z,38.81
2018-07-11T05:19:16.653Z,38.85
2018-07-11T05:19:47.876Z,38.30
2018-07-11T05:20:19.116Z,38.84
2018-07-11T05:20:50.344Z,39.23
2018-07-11T05:21:21.589Z,38.18
2018-07-11T05:21:52.760Z,38.77
2018-07-11T05:22:23.994Z,38.80
2018-07-11T05:22:55.181Z,37.80
2018-07-11T05:23:26.435Z,38.88
2018-07-11T05:23:57.676Z,39.08
2018-07-11T05:24:28.912Z,38.83
2018-07-11T05:25:00.211Z,38.96
2018-07-11T05:25:31.388Z,38.74
2018-07-11T05:26:02.598Z,38.66
2018-07-11T05:26:33.792Z,38.57
2018-07-11T05:27:04.966Z,38.16
2018-07-11T05:27:36.175Z,39.47
2018-07-11T05:28:07.393Z,39.48
2018-07-11T05:28:38.578Z,39.28
2018-07-11T05:29:09.762Z,39.63
2018-07-11T05:29:40.944Z,39.68
2018-07-11T05:30:12.168Z,40.06
2018-07-11T05:30:43.343Z,40.30
2018-07-11T05:31:14.514Z,40.27
2018-07-11T05:31:45.750Z,40.95
2018-07-11T05:32:16.993Z,40.68
2018-07-11T05:32:48.238Z,40.39
2018-07-11T05:33:19.452Z,39.54
2018-07-11T05:33:50.632Z,39.77
2018-07-11T05:34:21.865Z,39.49
2018-07-11T05:34:53.107Z,39.38
2018-07-11T05:35:24.337Z,39.44
2018-07-11T05:35:55.505Z,39.56
2018-07-11T05:36:26.877Z,38.66
2018-07-11T05:36:58.094Z,38.95
2018-07-11T05:37:29.269Z,39.08
2018-07-11T05:38:00.449Z,38.82
2018-07-11T05:38:31.737Z,38.07
2018-07-11T05:39:02.919Z,38.16
2018-07-11T05:39:34.100Z,39.10
2018-07-11T05:40:05.338Z,39.29
2018-07-11T05:40:36.520Z,39.92
2018-07-11T05:41:07.690Z,39.67
2018-07-11T05:41:38.894Z,40.18
2018-07-11T05:42:10.113Z,40.42
2018-07-11T05:42:41.285Z,39.77
2018-07-11T05:43:12.452Z,39.27
2018-07-11T05:43:43.685Z,38.52
2018-07-11T05:44:14.883Z,40.07
2018-07-11T05:44:46.441Z,39.75
2018-07-11T05:45:17.938Z,39.79
2018-07-11T05:45:49.149Z,39.17
2018-07-11T05:46:20.364Z,39.30
2018-07-11T05:46:51.607Z,40.41
2018-07-11T05:47:23.032Z,40.20
2018-07-11T05:47:54.308Z,40.34
2018-07-11T05:48:25.501Z,40.76
2018-07-11T05:48:56.716Z,40.95
2018-07-11T05:49:27.895Z,41.58
2018-07-11T05:49:59.073Z,41.06
2018-07-11T05:50:31.555Z,40.80
2018-07-11T05:51:02.814Z,41.11
2018-07-11T05:51:34.026Z,41.36
2018-07-11T05:52:05.344Z,41.63
2018-07-11T05:52:36.606Z,40.98
2018-07-11T05:53:07.874Z,42.22
2018-07-11T05:53:39.063Z,42.84
2018-07-11T05:54:10.280Z,42.47
2018-07-11T05:54:41.529Z,43.16
2018-07-11T05:55:12.712Z,42.85
2018-07-11T05:55:44.092Z,42.66
2018-07-11T05:56:15.330Z,42.55
2018-07-11T05:56:46.508Z,42.52
2018-07-11T05:57:17.683Z,42.89
2018-07-11T05:57:48.942Z,43.19
2018-07-11T05:58:20.184Z,42.77
2018-07-11T05:58:51.456Z,43.43
2018-07-11T05:59:22.773Z,43.18
2018-07-11T05:59:54.006Z,42.55
2018-07-11T06:00:25.192Z,42.99
2018-07-11T06:00:56.474Z,42.29
2018-07-11T06:01:27.709Z,42.27
2018-07-11T06:01:58.937Z,42.06
2018-07-11T06:02:30.127Z,42.45
2018-07-11T06:03:01.332Z,42.95
2018-07-11T06:03:32.569Z,43.24
2018-07-11T06:04:03.772Z,42.86
2018-07-11T06:04:34.991Z,43.25
2018-07-11T06:05:06.208Z,43.15
2018-07-11T06:05:37.420Z,43.01
2018-07-11T06:06:08.634Z,43.70
2018-07-11T06:06:39.873Z,43.00
2018-07-11T06:07:11.148Z,42.36
2018-07-11T06:07:42.332Z,42.47
2018-07-11T06:08:13.607Z,41.45
2018-07-11T06:08:44.849Z,41.05
2018-07-11T06:09:16.081Z,41.13
2018-07-11T06:09:47.257Z,40.67
2018-07-11T06:10:18.471Z,41.00
2018-07-11T06:10:49.656Z,41.35
2018-07-11T06:11:20.920Z,40.59
2018-07-11T06:11:52.097Z,40.49
2018-07-11T06:12:23.317Z,40.16
2018-07-11T06:12:54.503Z,39.63
2018-07-11T06:13:25.840Z,40.52
2018-07-11T06:13:57.033Z,40.59
2018-07-11T06:14:28.226Z,39.71
2018-07-11T06:14:59.403Z,39.87
2018-07-11T06:15:32.840Z,40.62
2018-07-11T06:16:06.255Z,40.85
2018-07-11T06:16:37.502Z,40.95
2018-07-11T06:17:08.733Z,41.46
2018-07-11T06:17:39.988Z,40.46
2018-07-11T06:18:47.800Z,40.99
2018-07-11T06:19:18.971Z,41.39
2018-07-11T06:19:50.155Z,40.57
2018-07-11T06:20:21.390Z,41.56
2018-07-11T06:20:52.612Z,41.88
2018-07-11T06:21:23.784Z,40.91
2018-07-11T06:21:54.969Z,41.30
2018-07-11T06:22:26.164Z,40.50
2018-07-11T06:22:57.347Z,40.88
2018-07-11T06:23:28.525Z,40.75
2018-07-11T06:24:00.897Z,40.71
2018-07-11T06:24:32.222Z,41.13
2018-07-11T06:25:03.615Z,41.95
2018-07-11T06:25:34.841Z,41.17
2018-07-11T06:26:11.822Z,41.33
2018-07-11T06:26:43.007Z,41.67
2018-07-11T06:27:14.267Z,41.34
2018-07-11T06:27:45.453Z,41.57
2018-07-11T06:28:18.234Z,41.94
2018-07-11T06:28:49.464Z,41.09
2018-07-11T06:29:20.668Z,41.31
2018-07-11T06:29:52.967Z,42.40
2018-07-11T06:30:24.149Z,42.14
2018-07-11T06:30:55.377Z,42.11
2018-07-11T06:31:26.577Z,42.18
2018-07-11T06:31:57.798Z,41.87
2018-07-11T06:32:29.080Z,42.53
2018-07-11T06:33:00.268Z,42.61
2018-07-11T06:33:31.487Z,42.55
2018-07-11T06:34:02.773Z,42.25
2018-07-11T06:34:33.979Z,42.20
2018-07-11T06:35:05.262Z,42.42
2018-07-11T06:35:36.449Z,42.16
2018-07-11T06:36:07.666Z,41.71
2018-07-11T06:36:38.878Z,42.57
2018-07-11T06:37:10.093Z,42.13
2018-07-11T06:37:41.280Z,42.49
2018-07-11T06:38:12.599Z,42.84
2018-07-11T06:38:43.853Z,43.36
2018-07-11T06:39:15.067Z,43.16
2018-07-11T06:39:46.287Z,43.47
2018-07-11T06:40:17.493Z,43.91
2018-07-11T06:40:48.705Z,43.88
2018-07-11T06:41:19.902Z,44.31
2018-07-11T06:41:51.105Z,44.09
2018-07-11T06:42:22.288Z,43.53
2018-07-11T06:42:53.470Z,43.46